Airfield :
LOGIN :

Register | Disclaimer

   EN    FR    IT 

 










Legend :    VFR   Marginal VFR   IFR   Intensive IFR   Very Intensive IFR
Visi :
Ceiling :
>= 8 km
>= 3000ft
5 to 8 km
1000 to 3000 ft
1500m to 5 km
500 to 1000 ft
800 to 1500m
200 to 500 ft
< 800m
< 200 ft
Symbols :   Thunderstorms  Fog  Heavy snow  Heavy precipitations  Wind > 20 kt
SIGMETs :     Misc.  Thunderstorms  Icing  Turbulence  Mountain Waves  Volcanic Ashes







- Airport Elevation : 526 ft
- IATA code : LTN
- Download approach charts


EGGW - London Luton

CURRENT METAR :
  • 260250Z AUTO 04007KT 9999 NCD 02/M01 Q1025

EXPIRED METARs :
  • 260220Z AUTO 05006KT 9999 NCD 03/M01 Q1025
  • 260150Z AUTO 04009KT 9999 NCD 03/M01 Q1025
  • 260120Z AUTO 04009KT 9999 NCD 03/M02 Q1025
  • 260050Z AUTO 04009KT 9999 NCD 03/M02 Q1026

TAF TAF EGGW
Valid from the 26 at 00:00 until the 27 at 00:00 UTC


252301Z 2600/2624 06012KT CAVOK
ATIS : +44 1582 395 204
No reported NOTAMs for that airfield.



MET'MAP, your aeronautical weather chart ! - Copyright ORBIFLY December 2007 - Disclaimer

ORBIFLY MET'MAP TEAM :

Programming & Development : Alexandra Zaïnal
Concept & Development : Baudouin d'Aumeries
Co-Development & Prog : Marc-Olivier Méhu
Technical & hardware support : Manuel Goepfert

Contact : metmap@orbifly.com




SOURCES & CREDITS :

   NOAA